Share

Tiruchirappalli, India

Tiruchirappalli (VOTR) Elev 289 ft | 10.77 °N, 78.71 °E | Change Station

Current weather conditions updated 51 minutes ago

Haze
Haze
79 °F
Feels Like 79 °F
N
2
Wind Variable Wind from Variable
Sunrise 6:03 AM
Sunset 6:26 PM
Moon Waning Gibbous

Today is forecast to be nearly the same temperature as yesterday.

Pressure 29.80 in
Visibility 2.5 miles
Clouds Few 1600 ft
Dew Point 73 °F
Humidity 83%
Rainfall 0.00 in
Snow Depth Not available.
UV 0 out of 16
Pollen Not available.
Air Quality Not available.
Flu Activity Not available.
METAR VOTR 170010Z VRB02KT 4000 HZ FEW016 26/23 Q1009 TEMPO 3000 HZ

More Conditions Fewer Conditions

Pressure 29.80 in
Visibility 2.5 miles
Clouds Few 1600 ft
Dew Point 73 °F
Humidity 83%
Rainfall 0.00 in
Snow Depth Not available.
UV 0 out of 16
Pollen Not available.
Air Quality Not available.
Flu Activity Not available.
METAR VOTR 170010Z VRB02KT 4000 HZ FEW016 26/23 Q1009 TEMPO 3000 HZ

More Conditions Fewer Conditions

10-Day Forecast

Almanac

Astronomy

Apr. 17, 2014 Rise Set
Actual Time 6:03 AM IST 6:26 PM IST
Civil Twilight 5:41 AM IST 6:47 PM IST
Nautical Twilight 5:16 AM IST 7:12 PM IST
Astronomical Twilight 4:51 AM IST 7:37 PM IST
Moon 8:23 PM IST 7:29 AM IST
Length of Visible Light 13h 05m
Length of Day
12h 22m
Tomorrow will be 0m 35s longer.
Waning Gibbous, 97% of the Moon is Illuminated
Apr 16
Waning Gibbous
Apr 22
Last Quarter
Apr 29
New
May 6
First Quarter
May 14
Full

Yesterday's Extremes

Country Highs Country Lows

Community

  • symphony in blue....
    symphony in blue....
  • Dawn Surprise
    Dawn Surprise
  • Yucca delight
    Yucca delight
  • Sunset inside of the Ocean
    Sunset inside of the Ocean
  • Lunar eclipse 15 April 2014
    Lunar eclipse 15 April 2014

WunderPhotos

Upload Photos

1,701,776 photos uploaded!

WunderBlogs® & News

Nearby

Snow Depth

Not available.

Coastal Water Temperatures

Place Temperature
No Stations Reporting

Earthquake Activity

City Distance Mag. Time & Date
No recent earthquake activity has been reported nearby.
Minimum magnitude displayed is 2.5.

Nearby Weather Stations

There are no personal weather stations in this area.

What do you think?

We're not finished. Please let us know what you like, what you don't like, and what you are still missing.